Trident — ZCYT9 — position and weather

sailwx.info

Track history (hours):
 
Tides and Currents Weather Stations Pressure Air Temp Water Temp Dewpoint Dewpoint Depression Visibility Wind Speed Wind Dir Waves Ship Positions

Trident

Last reported at 2015-Aug-31 04:31 UTC. Time now 2015-Aug-31 04:46 UTC.
Position N 43°14' E 006°40'.

Length 65 m; draft 3.4 m.

Type: Pleasure craft. MMSI: 319764000.

Date/timePositionNaut miles runAvg speedWind from/ knotsBaromVisibWave heightAir tempDewpointWater temp
2015-Aug-31 04:31N 43°14' E 006°40'0 0.0
2015-Aug-31 02:33N 43°14' E 006°40'0 0.0
2015-Aug-31 01:33N 43°14' E 006°40'0 0.0
2015-Aug-31 00:33N 43°14' E 006°40'0 0.0
2015-Aug-30 23:18N 43°14' E 006°40'0 0.0
2015-Aug-30 22:33N 43°14' E 006°40'0 0.0
2015-Aug-30 21:14N 43°14' E 006°40'0 0.0
2015-Aug-30 20:32N 43°14' E 006°40'0 0.0
2015-Aug-30 19:33N 43°14' E 006°40'0 0.0
2015-Aug-30 06:33N 43°14' E 006°40'1 1.3
2015-Aug-30 05:33N 43°13' E 006°41'0 0.0
2015-Aug-30 04:33N 43°13' E 006°41'0 0.0
2015-Aug-30 03:33N 43°13' E 006°41'0 0.0
2015-Aug-30 02:33N 43°13' E 006°41'0 0.0
2015-Aug-30 01:33N 43°13' E 006°41'0 0.0
2015-Aug-30 00:33N 43°13' E 006°41'0 0.0
2015-Aug-29 23:33N 43°13' E 006°41'0 0.0
2015-Aug-29 22:33N 43°13' E 006°41'0 0.0
2015-Aug-29 21:33N 43°13' E 006°41'0 0.0
2015-Aug-29 20:33N 43°13' E 006°41'0 0.0
2015-Aug-29 19:33N 43°13' E 006°41'2 0.3
2015-Aug-29 14:27N 43°14' E 006°40'0 0.0
2015-Aug-29 13:32N 43°14' E 006°40'0 0.0
2015-Aug-29 10:32N 43°14' E 006°40'0 0.0
2015-Aug-29 09:24N 43°14' E 006°40'3 1.0
2015-Aug-29 06:33N 43°17' E 006°41'3 2.7
2015-Aug-29 05:33N 43°17' E 006°38'0 0.0
2015-Aug-29 04:34N 43°17' E 006°38'0 0.0
2015-Aug-29 03:34N 43°17' E 006°38'0 0.0
2015-Aug-29 02:33N 43°17' E 006°38'0 0.0
2015-Aug-29 01:34N 43°17' E 006°38'0 0.0
2015-Aug-29 00:33N 43°17' E 006°38'0 0.0
2015-Aug-28 23:33N 43°17' E 006°38'0 0.0
2015-Aug-28 22:33N 43°17' E 006°38'0 0.0
2015-Aug-28 21:33N 43°17' E 006°38'0 0.0
2015-Aug-28 20:33N 43°17' E 006°38'0 0.0
2015-Aug-28 19:33N 43°17' E 006°38'3 0.4
2015-Aug-28 12:07N 43°14' E 006°40'0 0.0
2015-Aug-28 07:31N 43°14' E 006°40'0 0.0
2015-Aug-28 06:33N 43°14' E 006°40'7 7.1
2015-Aug-28 05:33N 43°12' E 006°49'1312.8
2015-Aug-28 04:33N 43°09' E 007°07'1412.9
2015-Aug-28 03:27N 43°06' E 007°26'2812.8
2015-Aug-28 01:15N 42°59' E 008°03'2313.5
2015-Aug-27 23:33N 42°53' E 008°33'28 9.1
2015-Aug-27 20:30N 42°44' E 009°09'0 0.0
2015-Aug-27 14:05N 42°44' E 009°09'0 0.0
2015-Aug-27 13:32N 42°44' E 009°09'0 0.0
2015-Aug-27 11:34N 42°44' E 009°09'0 0.0
2015-Aug-27 10:33N 42°44' E 009°09'0 0.0
2015-Aug-27 09:18N 42°44' E 009°09'0 0.0
2015-Aug-27 08:34N 42°44' E 009°09'0 0.0
2015-Aug-27 07:34N 42°44' E 009°09'11 1.4
2015-Aug-26 23:31N 42°55' E 009°15'  
Track history (hours):
 
Tides and Currents Weather Stations Pressure Air Temp Water Temp Dewpoint Dewpoint Depression Visibility Wind Speed Wind Dir Waves Ship Positions

Trident

Last reported at 2015-Aug-31 04:31 UTC. Time now 2015-Aug-31 04:46 UTC.
Position N 43°14' E 006°40'.

Length 65 m; draft 3.4 m.

Type: Pleasure craft. MMSI: 319764000.

Date/timePositionNaut miles runAvg speedWind from/ knotsBaromVisibWave heightAir tempDewpointWater temp
2015-Aug-31 04:31N 43°14' E 006°40'0 0.0
2015-Aug-31 02:33N 43°14' E 006°40'0 0.0
2015-Aug-31 01:33N 43°14' E 006°40'0 0.0
2015-Aug-31 00:33N 43°14' E 006°40'0 0.0
2015-Aug-30 23:18N 43°14' E 006°40'0 0.0
2015-Aug-30 22:33N 43°14' E 006°40'0 0.0
2015-Aug-30 21:14N 43°14' E 006°40'0 0.0
2015-Aug-30 20:32N 43°14' E 006°40'0 0.0
2015-Aug-30 19:33N 43°14' E 006°40'0 0.0
2015-Aug-30 06:33N 43°14' E 006°40'1 1.3
2015-Aug-30 05:33N 43°13' E 006°41'0 0.0
2015-Aug-30 04:33N 43°13' E 006°41'0 0.0
2015-Aug-30 03:33N 43°13' E 006°41'0 0.0
2015-Aug-30 02:33N 43°13' E 006°41'0 0.0
2015-Aug-30 01:33N 43°13' E 006°41'0 0.0
2015-Aug-30 00:33N 43°13' E 006°41'0 0.0
2015-Aug-29 23:33N 43°13' E 006°41'0 0.0
2015-Aug-29 22:33N 43°13' E 006°41'0 0.0
2015-Aug-29 21:33N 43°13' E 006°41'0 0.0
2015-Aug-29 20:33N 43°13' E 006°41'0 0.0
2015-Aug-29 19:33N 43°13' E 006°41'2 0.3
2015-Aug-29 14:27N 43°14' E 006°40'0 0.0
2015-Aug-29 13:32N 43°14' E 006°40'0 0.0
2015-Aug-29 10:32N 43°14' E 006°40'0 0.0
2015-Aug-29 09:24N 43°14' E 006°40'3 1.0
2015-Aug-29 06:33N 43°17' E 006°41'3 2.7
2015-Aug-29 05:33N 43°17' E 006°38'0 0.0
2015-Aug-29 04:34N 43°17' E 006°38'0 0.0
2015-Aug-29 03:34N 43°17' E 006°38'0 0.0
2015-Aug-29 02:33N 43°17' E 006°38'0 0.0
2015-Aug-29 01:34N 43°17' E 006°38'0 0.0
2015-Aug-29 00:33N 43°17' E 006°38'0 0.0
2015-Aug-28 23:33N 43°17' E 006°38'0 0.0
2015-Aug-28 22:33N 43°17' E 006°38'0 0.0
2015-Aug-28 21:33N 43°17' E 006°38'0 0.0
2015-Aug-28 20:33N 43°17' E 006°38'0 0.0
2015-Aug-28 19:33N 43°17' E 006°38'3 0.4
2015-Aug-28 12:07N 43°14' E 006°40'0 0.0
2015-Aug-28 07:31N 43°14' E 006°40'0 0.0
2015-Aug-28 06:33N 43°14' E 006°40'7 7.1
2015-Aug-28 05:33N 43°12' E 006°49'1312.8
2015-Aug-28 04:33N 43°09' E 007°07'1412.9
2015-Aug-28 03:27N 43°06' E 007°26'2812.8
2015-Aug-28 01:15N 42°59' E 008°03'2313.5
2015-Aug-27 23:33N 42°53' E 008°33'28 9.1
2015-Aug-27 20:30N 42°44' E 009°09'0 0.0
2015-Aug-27 14:05N 42°44' E 009°09'0 0.0
2015-Aug-27 13:32N 42°44' E 009°09'0 0.0
2015-Aug-27 11:34N 42°44' E 009°09'0 0.0
2015-Aug-27 10:33N 42°44' E 009°09'0 0.0
2015-Aug-27 09:18N 42°44' E 009°09'0 0.0
2015-Aug-27 08:34N 42°44' E 009°09'0 0.0
2015-Aug-27 07:34N 42°44' E 009°09'11 1.4
2015-Aug-26 23:31N 42°55' E 009°15'  

Dump ship's entire track history